createdAt,value
2019-03-21T00:00:00.984Z,87.26
2019-03-21T00:01:00.995Z,87.50
2019-03-21T00:02:00.960Z,87.56
2019-03-21T00:03:00.946Z,87.56
2019-03-21T00:04:00.940Z,87.77
2019-03-21T00:05:00.924Z,87.77
2019-03-21T00:06:00.986Z,88.08
2019-03-21T00:07:00.900Z,87.66
2019-03-21T00:08:00.888Z,87.71
2019-03-21T00:09:00.879Z,87.71
2019-03-21T00:10:00.871Z,87.60
2019-03-21T00:11:00.882Z,87.81
2019-03-21T00:12:00.857Z,88.43
2019-03-21T00:13:00.832Z,87.81
2019-03-21T00:14:06.950Z,87.50
2019-03-21T00:15:01.808Z,87.60
2019-03-21T00:16:00.794Z,88.02
2019-03-21T00:17:00.811Z,88.12
2019-03-21T00:18:00.772Z,88.64
2019-03-21T00:19:00.760Z,88.47
2019-03-21T00:20:00.746Z,88.32
2019-03-21T00:21:00.735Z,88.32
2019-03-21T00:22:00.747Z,88.16
2019-03-21T00:23:00.713Z,88.37
2019-03-21T00:24:00.710Z,88.53
2019-03-21T00:25:00.689Z,88.43
2019-03-21T00:26:00.682Z,88.47
2019-03-21T00:27:00.688Z,88.53
2019-03-21T00:28:00.657Z,88.32
2019-03-21T00:29:00.646Z,88.74
2019-03-21T00:30:00.652Z,88.37
2019-03-21T00:31:00.618Z,88.22
2019-03-21T00:32:00.609Z,87.81
2019-03-21T00:33:00.614Z,88.43
2019-03-21T00:34:00.588Z,88.02
2019-03-21T00:35:00.573Z,88.74
2019-03-21T00:36:00.561Z,88.06
2019-03-21T00:37:00.548Z,88.74
2019-03-21T00:38:00.558Z,88.37
2019-03-21T00:39:00.524Z,88.37
2019-03-21T00:40:00.513Z,88.57
2019-03-21T00:41:00.497Z,88.47
2019-03-21T00:42:00.487Z,88.68
2019-03-21T00:43:00.500Z,88.57
2019-03-21T00:44:00.463Z,88.78
2019-03-21T00:45:00.454Z,88.68
2019-03-21T00:46:00.442Z,88.47
2019-03-21T00:47:00.428Z,87.74
2019-03-21T00:48:00.417Z,88.68
2019-03-21T00:49:00.426Z,88.57
2019-03-21T00:50:00.391Z,88.06
2019-03-21T00:51:00.382Z,88.57
2019-03-21T00:52:00.371Z,88.61
2019-03-21T00:53:00.356Z,88.37
2019-03-21T00:54:00.361Z,88.61
2019-03-21T00:55:00.348Z,88.51
2019-03-21T00:56:00.324Z,88.92
2019-03-21T00:57:00.311Z,89.75
2019-03-21T00:58:00.302Z,89.23
2019-03-21T00:59:00.305Z,89.34
2019-03-21T01:00:00.383Z,89.23
2019-03-21T01:01:00.262Z,89.34
2019-03-21T01:02:00.250Z,88.92
2019-03-21T01:03:00.241Z,89.54
2019-03-21T01:04:00.247Z,89.44
2019-03-21T01:05:00.374Z,89.34
2019-03-21T01:06:00.201Z,89.44
2019-03-21T01:07:00.191Z,90.20
2019-03-21T01:08:00.180Z,90.00
2019-03-21T01:09:00.184Z,90.41
2019-03-21T01:10:00.303Z,89.69
2019-03-21T01:11:00.143Z,89.69
2019-03-21T01:12:00.133Z,89.48
2019-03-21T01:13:00.118Z,90.10
2019-03-21T01:14:00.125Z,90.25
2019-03-21T01:15:00.306Z,90.20
2019-03-21T01:16:00.111Z,90.00
2019-03-21T01:17:00.070Z,90.52
2019-03-21T01:18:00.058Z,90.45
2019-03-21T01:19:00.068Z,90.41
2019-03-21T01:20:00.034Z,90.35
2019-03-21T01:21:00.022Z,90.31
2019-03-21T01:22:00.018Z,90.45
2019-03-21T01:23:00.001Z,90.45
2019-03-21T01:24:00.006Z,90.52
2019-03-21T01:24:59.975Z,90.52
2019-03-21T01:25:59.968Z,90.56
2019-03-21T01:26:59.958Z,90.14
2019-03-21T01:27:59.939Z,90.45
2019-03-21T01:28:59.948Z,90.45
2019-03-21T01:29:59.914Z,90.45
2019-03-21T01:30:59.905Z,90.45
2019-03-21T01:31:59.895Z,90.56
2019-03-21T01:32:59.882Z,90.56
2019-03-21T01:33:59.887Z,90.87
2019-03-21T01:34:59.855Z,91.69
2019-03-21T01:35:59.844Z,91.63
2019-03-21T01:36:59.832Z,91.59
2019-03-21T01:37:59.822Z,91.69
2019-03-21T01:38:59.827Z,91.80
2019-03-21T01:39:59.794Z,91.53
2019-03-21T01:40:59.784Z,91.80
2019-03-21T01:41:59.770Z,90.87
2019-03-21T01:42:59.760Z,91.28
2019-03-21T01:43:59.769Z,90.87
2019-03-21T01:44:59.735Z,90.97
2019-03-21T01:45:59.725Z,91.17
2019-03-21T01:46:59.714Z,91.49
2019-03-21T01:47:59.710Z,91.17
2019-03-21T01:48:59.713Z,91.49
2019-03-21T01:49:59.677Z,91.38
2019-03-21T01:50:59.669Z,91.94
2019-03-21T01:51:59.653Z,91.74
2019-03-21T01:52:59.642Z,91.63
2019-03-21T01:53:59.651Z,91.94
2019-03-21T01:54:59.620Z,91.53
2019-03-21T01:55:59.608Z,91.90
2019-03-21T01:56:59.596Z,91.63
2019-03-21T01:57:59.594Z,91.63
2019-03-21T01:58:59.597Z,91.22
2019-03-21T01:59:59.557Z,91.53
2019-03-21T02:00:59.554Z,91.28
2019-03-21T02:01:59.538Z,91.42
2019-03-21T02:02:59.526Z,91.74
2019-03-21T02:03:59.511Z,91.74
2019-03-21T02:04:59.518Z,91.22
2019-03-21T02:05:59.486Z,91.53
2019-03-21T02:06:59.476Z,91.32
2019-03-21T02:07:59.463Z,91.63
2019-03-21T02:08:59.450Z,91.53
2019-03-21T02:09:59.456Z,91.63
2019-03-21T02:10:59.426Z,91.32
2019-03-21T02:11:59.429Z,91.67
2019-03-21T02:12:59.405Z,91.99
2019-03-21T02:13:59.389Z,92.15
2019-03-21T02:14:59.398Z,91.74
2019-03-21T02:15:59.434Z,91.99
2019-03-21T02:16:59.355Z,91.99
2019-03-21T02:17:59.342Z,92.09
2019-03-21T02:18:59.329Z,91.99
2019-03-21T02:19:59.339Z,92.09
2019-03-21T02:20:59.307Z,91.99
2019-03-21T02:21:59.295Z,92.15
2019-03-21T02:22:59.287Z,92.30
2019-03-21T02:23:59.273Z,92.40
2019-03-21T02:24:59.277Z,92.50
2019-03-21T02:25:59.253Z,92.50
2019-03-21T02:26:59.237Z,92.61
2019-03-21T02:27:59.223Z,92.81
2019-03-21T02:28:59.213Z,92.19
2019-03-21T02:29:59.218Z,92.50
2019-03-21T02:30:59.188Z,92.40
2019-03-21T02:31:59.184Z,92.50
2019-03-21T02:32:59.165Z,92.09
2019-03-21T02:33:59.159Z,92.50
2019-03-21T02:34:59.163Z,92.30
2019-03-21T02:35:59.138Z,92.40
2019-03-21T02:36:59.122Z,92.71
2019-03-21T02:37:59.106Z,92.50
2019-03-21T02:38:59.094Z,92.50
2019-03-21T02:40:00.289Z,92.76
2019-03-21T02:40:59.070Z,92.85
2019-03-21T02:41:59.090Z,92.50
2019-03-21T02:42:59.062Z,92.65
2019-03-21T02:43:59.039Z,93.16
2019-03-21T02:45:08.251Z,93.37
2019-03-21T02:46:00.012Z,93.27
2019-03-21T02:46:59.022Z,93.27
2019-03-21T02:47:58.987Z,93.06
2019-03-21T02:48:58.978Z,93.68
2019-03-21T02:49:58.966Z,93.48
2019-03-21T02:50:58.954Z,93.37
2019-03-21T02:51:58.960Z,93.89
2019-03-21T02:52:58.936Z,93.58
2019-03-21T02:53:58.919Z,93.89
2019-03-21T02:54:58.909Z,93.58
2019-03-21T02:55:58.896Z,93.68
2019-03-21T02:56:58.909Z,93.16
2019-03-21T02:57:58.873Z,93.68
2019-03-21T02:58:58.862Z,93.16
2019-03-21T02:59:58.854Z,93.06
2019-03-21T03:00:58.843Z,93.48
2019-03-21T03:01:58.828Z,93.37
2019-03-21T03:02:58.840Z,93.48
2019-03-21T03:03:58.826Z,93.37
2019-03-21T03:04:58.799Z,93.83
2019-03-21T03:05:58.789Z,93.68
2019-03-21T03:06:59.766Z,93.73
2019-03-21T03:07:58.876Z,93.73
2019-03-21T03:08:58.749Z,93.41
2019-03-21T03:09:58.736Z,93.73
2019-03-21T03:10:58.728Z,94.04
2019-03-21T03:11:58.721Z,93.93
2019-03-21T03:12:58.722Z,93.93
2019-03-21T03:13:58.691Z,93.93
2019-03-21T03:14:58.679Z,94.14
2019-03-21T03:15:58.671Z,94.14
2019-03-21T03:16:58.659Z,94.04
2019-03-21T03:17:58.675Z,94.56
2019-03-21T03:18:58.639Z,94.45
2019-03-21T03:19:58.649Z,94.66
2019-03-21T03:20:58.616Z,94.35
2019-03-21T03:21:58.603Z,94.76
2019-03-21T03:22:58.590Z,94.70
2019-03-21T03:23:58.598Z,94.29
2019-03-21T03:24:58.565Z,94.60
2019-03-21T03:25:58.555Z,94.81
2019-03-21T03:26:58.544Z,94.39
2019-03-21T03:27:58.534Z,94.39
2019-03-21T03:28:58.544Z,94.39
2019-03-21T03:29:58.541Z,94.29
2019-03-21T03:30:58.519Z,94.18
2019-03-21T03:31:58.499Z,94.39
2019-03-21T03:32:58.488Z,94.18
2019-03-21T03:33:58.521Z,94.08
2019-03-21T03:34:58.468Z,94.29
2019-03-21T03:35:58.444Z,94.70
2019-03-21T03:36:58.432Z,94.39
2019-03-21T03:37:58.419Z,94.39
2019-03-21T03:38:58.427Z,94.29
2019-03-21T03:39:58.396Z,94.08
2019-03-21T03:40:58.388Z,94.49
2019-03-21T03:41:58.375Z,94.29
2019-03-21T03:42:58.361Z,94.70
2019-03-21T03:43:58.371Z,94.70
2019-03-21T03:44:58.347Z,95.01
2019-03-21T03:45:58.335Z,95.12
2019-03-21T03:46:58.322Z,94.85
2019-03-21T03:47:58.388Z,95.01
2019-03-21T03:48:58.324Z,94.70
2019-03-21T03:49:58.286Z,94.95
2019-03-21T03:50:58.278Z,94.60
2019-03-21T03:51:58.260Z,95.06
2019-03-21T03:52:58.250Z,95.16
2019-03-21T03:53:58.239Z,95.16
2019-03-21T03:54:58.245Z,94.95
2019-03-21T03:55:58.219Z,95.47
2019-03-21T03:56:58.202Z,95.43
2019-03-21T03:57:58.194Z,95.22
2019-03-21T03:58:58.182Z,94.91
2019-03-21T03:59:58.189Z,95.53
2019-03-21T04:00:58.169Z,95.12
2019-03-21T04:01:58.147Z,94.85
2019-03-21T04:02:58.138Z,95.12
2019-03-21T04:03:58.125Z,95.22
2019-03-21T04:04:58.133Z,94.81
2019-03-21T04:05:58.107Z,95.12
2019-03-21T04:06:58.099Z,95.26
2019-03-21T04:07:58.079Z,95.12
2019-03-21T04:08:58.102Z,94.91
2019-03-21T04:09:58.101Z,95.57
2019-03-21T04:10:58.076Z,95.37
2019-03-21T04:11:58.033Z,94.95
2019-03-21T04:12:58.022Z,94.81
2019-03-21T04:13:58.012Z,94.91
2019-03-21T04:14:58.000Z,95.22
2019-03-21T04:15:58.012Z,94.49
2019-03-21T04:16:57.983Z,95.32
2019-03-21T04:17:58.000Z,94.49
2019-03-21T04:18:57.957Z,94.60
2019-03-21T04:19:57.958Z,94.43
2019-03-21T04:20:57.957Z,95.16
2019-03-21T04:21:57.942Z,94.95
2019-03-21T04:22:57.913Z,95.47
2019-03-21T04:23:59.770Z,94.95
2019-03-21T04:24:57.887Z,95.06
2019-03-21T04:25:57.894Z,95.37
2019-03-21T04:26:57.859Z,95.47
2019-03-21T04:27:57.861Z,94.85
2019-03-21T04:28:57.836Z,94.95
2019-03-21T04:29:57.822Z,95.47
2019-03-21T04:30:57.828Z,95.16
2019-03-21T04:31:57.798Z,95.16
2019-03-21T04:32:57.785Z,95.31
2019-03-21T04:33:57.780Z,95.20
2019-03-21T04:34:57.767Z,95.51
2019-03-21T04:35:57.777Z,95.31
2019-03-21T04:36:57.740Z,95.72
2019-03-21T04:37:57.731Z,95.20
2019-03-21T04:38:57.719Z,95.41
2019-03-21T04:39:57.719Z,95.41
2019-03-21T04:40:57.705Z,96.24
2019-03-21T04:41:57.702Z,96.55
2019-03-21T04:42:57.672Z,96.66
2019-03-21T04:43:57.663Z,96.55
2019-03-21T04:44:57.653Z,95.83
2019-03-21T04:46:03.235Z,96.66
2019-03-21T04:46:58.646Z,96.14
2019-03-21T04:47:57.619Z,96.24
2019-03-21T04:48:57.604Z,96.55
2019-03-21T04:49:57.594Z,96.24
2019-03-21T04:50:57.587Z,96.24
2019-03-21T04:51:57.591Z,96.55
2019-03-21T04:52:57.563Z,96.08
2019-03-21T04:53:57.549Z,96.45
2019-03-21T04:54:57.538Z,96.24
2019-03-21T04:55:57.526Z,96.24
2019-03-21T04:56:57.533Z,96.45
2019-03-21T04:57:57.506Z,96.66
2019-03-21T04:58:57.493Z,96.66
2019-03-21T04:59:57.481Z,96.45
2019-03-21T05:00:57.471Z,96.45
2019-03-21T05:01:57.478Z,96.66
2019-03-21T05:02:57.447Z,96.66
2019-03-21T05:03:57.438Z,96.55
2019-03-21T05:04:57.424Z,95.93
2019-03-21T05:05:57.414Z,96.29
2019-03-21T05:06:57.424Z,96.29
2019-03-21T05:07:57.396Z,96.14
2019-03-21T05:08:57.379Z,96.45
2019-03-21T05:09:57.369Z,96.39
2019-03-21T05:10:57.356Z,96.24
2019-03-21T05:11:57.344Z,96.24
2019-03-21T05:12:57.354Z,96.29
2019-03-21T05:13:57.324Z,96.19
2019-03-21T05:14:57.311Z,96.03
2019-03-21T05:15:57.300Z,96.14
2019-03-21T05:16:57.290Z,96.24
2019-03-21T05:17:57.300Z,96.45
2019-03-21T05:18:57.264Z,96.66
2019-03-21T05:19:57.254Z,96.45
2019-03-21T05:20:57.242Z,95.62
2019-03-21T05:21:57.233Z,95.83
2019-03-21T05:22:57.239Z,95.83
2019-03-21T05:23:57.209Z,95.72
2019-03-21T05:24:57.198Z,96.14
2019-03-21T05:25:57.188Z,95.47
2019-03-21T05:26:57.176Z,95.83
2019-03-21T05:27:57.204Z,95.41
2019-03-21T05:28:57.152Z,95.72
2019-03-21T05:29:57.149Z,95.51
2019-03-21T05:30:57.128Z,95.31
2019-03-21T05:31:57.123Z,95.83
2019-03-21T05:32:57.108Z,95.41
2019-03-21T05:33:57.115Z,95.41
2019-03-21T05:34:57.084Z,95.20
2019-03-21T05:35:57.085Z,95.62
2019-03-21T05:36:57.062Z,95.20
2019-03-21T05:37:57.053Z,95.31
2019-03-21T05:38:57.058Z,95.51
2019-03-21T05:39:57.033Z,95.51
2019-03-21T05:40:57.017Z,95.25
2019-03-21T05:41:57.006Z,95.00
2019-03-21T05:42:56.992Z,95.51
2019-03-21T05:43:57.002Z,95.41
2019-03-21T05:44:56.970Z,95.41
2019-03-21T05:45:56.958Z,95.62
2019-03-21T05:46:56.947Z,95.72
2019-03-21T05:47:56.937Z,95.56
2019-03-21T05:48:56.955Z,95.72
2019-03-21T05:49:56.912Z,95.62
2019-03-21T05:50:56.902Z,95.31
2019-03-21T05:51:56.891Z,95.41
2019-03-21T05:52:56.880Z,95.31
2019-03-21T05:53:56.887Z,95.10
2019-03-21T05:54:56.857Z,95.41
2019-03-21T05:55:56.844Z,95.41
2019-03-21T05:56:56.832Z,95.31
2019-03-21T05:57:56.822Z,95.62
2019-03-21T05:58:56.836Z,95.51
2019-03-21T05:59:56.800Z,95.00
2019-03-21T06:00:56.790Z,95.41
2019-03-21T06:01:56.807Z,95.10
2019-03-21T06:02:56.764Z,94.95
2019-03-21T06:03:56.758Z,95.10
2019-03-21T06:04:56.763Z,95.31
2019-03-21T06:05:56.733Z,95.20
2019-03-21T06:06:56.721Z,95.20
2019-03-21T06:07:56.711Z,94.85
2019-03-21T06:08:56.699Z,94.85
2019-03-21T06:09:56.706Z,94.95
2019-03-21T06:10:56.678Z,95.26
2019-03-21T06:11:56.665Z,94.74
2019-03-21T06:12:56.653Z,95.22
2019-03-21T06:13:56.643Z,94.60
2019-03-21T06:14:56.650Z,94.39
2019-03-21T06:15:56.619Z,94.39
2019-03-21T06:16:56.607Z,94.70
2019-03-21T06:17:56.598Z,94.81
2019-03-21T06:18:56.586Z,94.14
2019-03-21T06:19:56.572Z,94.41
2019-03-21T06:20:56.578Z,93.48
2019-03-21T06:21:56.551Z,92.76
2019-03-21T06:22:56.537Z,92.44
2019-03-21T06:23:56.528Z,92.34
2019-03-21T06:24:56.516Z,91.57
2019-03-21T06:25:56.523Z,91.20
2019-03-21T06:26:56.500Z,91.05
2019-03-21T06:27:56.479Z,90.99
2019-03-21T06:28:56.470Z,91.05
2019-03-21T06:29:56.456Z,90.33
2019-03-21T06:30:56.464Z,90.23
2019-03-21T06:31:56.432Z,90.33
2019-03-21T06:32:56.426Z,90.33
2019-03-21T06:33:56.413Z,89.92
2019-03-21T06:34:56.400Z,89.92
2019-03-21T06:35:56.432Z,89.81
2019-03-21T06:36:56.376Z,90.02
2019-03-21T06:37:56.363Z,90.29
2019-03-21T06:38:56.350Z,89.32
2019-03-21T06:39:56.339Z,88.55
2019-03-21T06:40:56.329Z,87.95
2019-03-21T06:41:56.335Z,85.44
2019-03-21T06:42:56.304Z,83.54
2019-03-21T06:43:56.378Z,81.88
2019-03-21T06:44:56.283Z,80.23
2019-03-21T06:45:56.268Z,80.44
2019-03-21T06:46:56.276Z,80.33
2019-03-21T06:47:56.246Z,80.13
2019-03-21T06:48:56.230Z,79.13
2019-03-21T06:49:56.221Z,77.75
2019-03-21T06:50:56.212Z,75.32
2019-03-21T06:51:56.236Z,72.65
2019-03-21T06:52:56.185Z,70.47
2019-03-21T06:53:56.175Z,66.75
2019-03-21T06:54:56.163Z,65.70
2019-03-21T06:55:56.151Z,64.52
2019-03-21T06:56:56.140Z,63.95
2019-03-21T06:57:56.146Z,62.39
2019-03-21T06:58:56.122Z,61.65
2019-03-21T06:59:56.108Z,61.59
2019-03-21T07:00:56.093Z,59.12
2019-03-21T07:01:56.078Z,58.96
2019-03-21T07:02:56.088Z,57.46
2019-03-21T07:04:06.655Z,55.27
2019-03-21T07:04:57.044Z,54.44
2019-03-21T07:05:56.032Z,53.37
2019-03-21T07:07:07.255Z,51.53
2019-03-21T07:07:57.030Z,51.25
2019-03-21T07:08:55.998Z,49.66
2019-03-21T07:09:55.985Z,51.17
2019-03-21T07:10:58.275Z,50.95
2019-03-21T07:11:55.968Z,49.41
2019-03-21T07:12:55.970Z,49.08
2019-03-21T07:13:55.940Z,48.15
2019-03-21T07:14:55.931Z,46.81
2019-03-21T07:15:55.916Z,48.80
2019-03-21T07:17:00.474Z,49.58
2019-03-21T07:17:55.910Z,52.18
2019-03-21T07:18:55.882Z,54.28
2019-03-21T07:19:55.874Z,54.18
2019-03-21T07:20:55.858Z,54.61
2019-03-21T07:21:55.853Z,54.79
2019-03-21T07:22:55.852Z,54.66
2019-03-21T07:23:55.823Z,53.60
2019-03-21T07:24:55.809Z,52.44
2019-03-21T07:25:55.797Z,51.60
2019-03-21T07:26:55.786Z,50.16
2019-03-21T07:27:55.795Z,50.46
2019-03-21T07:28:55.765Z,50.46
2019-03-21T07:29:55.750Z,49.22
2019-03-21T07:30:55.745Z,50.79
2019-03-21T07:31:55.774Z,49.91
2019-03-21T07:32:55.716Z,47.74
2019-03-21T07:33:55.725Z,47.92
2019-03-21T07:34:55.693Z,48.30
2019-03-21T07:35:55.681Z,46.77
2019-03-21T07:36:55.674Z,46.33
2019-03-21T07:37:55.657Z,44.69
2019-03-21T07:38:55.663Z,44.45
2019-03-21T07:39:55.635Z,43.52
2019-03-21T07:40:55.622Z,43.90
2019-03-21T07:41:55.608Z,43.42
2019-03-21T07:42:55.605Z,43.56
2019-03-21T07:43:55.616Z,42.97
2019-03-21T07:44:55.574Z,42.05
2019-03-21T07:45:55.564Z,42.13
2019-03-21T07:46:55.551Z,42.27
2019-03-21T07:47:55.540Z,44.15
2019-03-21T07:48:55.550Z,44.45
2019-03-21T07:49:55.517Z,43.42
2019-03-21T07:50:55.504Z,43.87
2019-03-21T07:51:55.497Z,44.69
2019-03-21T07:52:55.484Z,44.47
2019-03-21T07:53:55.470Z,44.39
2019-03-21T07:54:55.480Z,45.52
2019-03-21T07:55:55.449Z,45.14
2019-03-21T07:56:55.437Z,45.92
2019-03-21T07:57:55.423Z,45.21
2019-03-21T07:58:57.710Z,46.92
2019-03-21T07:59:55.420Z,47.60
2019-03-21T08:00:55.391Z,46.85
2019-03-21T08:01:55.388Z,45.92
2019-03-21T08:02:55.369Z,45.74
2019-03-21T08:03:55.357Z,45.74
2019-03-21T08:04:55.376Z,46.02
2019-03-21T08:05:55.335Z,44.59
2019-03-21T08:06:55.324Z,44.49
2019-03-21T08:07:55.310Z,45.50
2019-03-21T08:08:55.299Z,45.55
2019-03-21T08:09:55.311Z,45.47
2019-03-21T08:10:55.277Z,44.89
2019-03-21T08:11:55.264Z,45.19
2019-03-21T08:12:55.252Z,44.49
2019-03-21T08:13:55.241Z,46.06
2019-03-21T08:14:55.229Z,46.77
2019-03-21T08:15:55.237Z,45.79
2019-03-21T08:16:55.204Z,45.90
2019-03-21T08:17:55.194Z,45.72
2019-03-21T08:18:55.180Z,45.82
2019-03-21T08:19:55.171Z,46.00
2019-03-21T08:20:58.470Z,44.10
2019-03-21T08:21:55.147Z,43.20
2019-03-21T08:22:55.136Z,42.63
2019-03-21T08:23:55.123Z,42.46
2019-03-21T08:24:55.112Z,42.97
2019-03-21T08:25:55.118Z,43.28
2019-03-21T08:26:55.087Z,43.34
2019-03-21T08:27:55.080Z,42.47
2019-03-21T08:28:55.068Z,43.38
2019-03-21T08:29:55.058Z,43.30
2019-03-21T08:30:55.066Z,43.20
2019-03-21T08:31:55.031Z,44.24
2019-03-21T08:33:03.180Z,44.67
2019-03-21T08:33:55.009Z,45.86
2019-03-21T08:34:54.994Z,43.80
2019-03-21T08:35:54.982Z,43.24
2019-03-21T08:36:54.988Z,42.24
2019-03-21T08:37:54.960Z,41.89
2019-03-21T08:38:54.948Z,41.61
2019-03-21T08:39:54.938Z,41.93
2019-03-21T08:40:54.928Z,42.55
2019-03-21T08:41:54.938Z,42.33
2019-03-21T08:42:54.902Z,42.61
2019-03-21T08:43:54.890Z,41.60
2019-03-21T08:44:54.883Z,40.75
2019-03-21T08:45:54.870Z,38.89
2019-03-21T08:46:54.877Z,40.09
2019-03-21T08:47:54.846Z,38.36
2019-03-21T08:48:54.838Z,38.34
2019-03-21T08:49:54.823Z,37.54
2019-03-21T08:50:54.810Z,37.14
2019-03-21T08:51:54.822Z,38.14
2019-03-21T08:52:54.787Z,37.81
2019-03-21T08:53:54.777Z,38.07
2019-03-21T08:54:54.763Z,36.00
2019-03-21T08:55:54.753Z,35.77
2019-03-21T08:56:54.743Z,32.76
2019-03-21T08:57:54.749Z,33.80
2019-03-21T08:58:54.720Z,31.97
2019-03-21T08:59:54.709Z,31.76
2019-03-21T09:00:54.696Z,31.82
2019-03-21T09:01:54.687Z,30.33
2019-03-21T09:02:54.694Z,29.72
2019-03-21T09:03:54.662Z,30.40
2019-03-21T09:04:54.697Z,29.80
2019-03-21T09:05:54.640Z,30.15
2019-03-21T09:06:54.627Z,31.82
2019-03-21T09:07:54.633Z,32.70
2019-03-21T09:08:54.603Z,32.86
2019-03-21T09:09:54.592Z,31.32
2019-03-21T09:10:54.600Z,29.88
2019-03-21T09:11:54.571Z,30.38
2019-03-21T09:12:54.584Z,27.99
2019-03-21T09:13:54.550Z,29.24
2019-03-21T09:14:54.535Z,27.57
2019-03-21T09:15:54.526Z,28.79
2019-03-21T09:16:54.513Z,29.86
2019-03-21T09:17:55.547Z,28.55
2019-03-21T09:18:54.511Z,27.19
2019-03-21T09:19:54.481Z,27.75
2019-03-21T09:20:54.472Z,26.45
2019-03-21T09:21:54.459Z,25.76
2019-03-21T09:22:54.449Z,26.73
2019-03-21T09:23:54.454Z,28.24
2019-03-21T09:24:54.469Z,27.54
2019-03-21T09:25:54.416Z,26.17
2019-03-21T09:26:54.404Z,27.28
2019-03-21T09:28:02.464Z,27.08
2019-03-21T09:28:55.401Z,27.37
2019-03-21T09:29:54.372Z,28.13
2019-03-21T09:30:56.458Z,27.64
2019-03-21T09:31:54.350Z,26.64
2019-03-21T09:32:54.338Z,27.43
2019-03-21T09:33:54.351Z,26.36
2019-03-21T09:34:54.318Z,26.25
2019-03-21T09:35:54.312Z,26.45
2019-03-21T09:36:54.293Z,26.28
2019-03-21T09:37:54.285Z,27.79
2019-03-21T09:38:54.271Z,27.59
2019-03-21T09:39:54.283Z,27.48
2019-03-21T09:40:54.259Z,27.27
2019-03-21T09:41:54.243Z,27.67
2019-03-21T09:42:54.228Z,27.79
2019-03-21T09:43:54.220Z,28.06
2019-03-21T09:44:54.229Z,27.36
2019-03-21T09:45:54.196Z,27.06
2019-03-21T09:46:54.189Z,26.98
2019-03-21T09:47:54.184Z,26.39
2019-03-21T09:48:54.161Z,27.16
2019-03-21T09:49:54.172Z,26.43
2019-03-21T09:50:54.144Z,25.65
2019-03-21T09:51:54.133Z,25.79
2019-03-21T09:52:54.115Z,27.01
2019-03-21T09:53:54.107Z,28.06
2019-03-21T09:54:54.135Z,26.59
2019-03-21T09:55:54.086Z,27.57
2019-03-21T09:56:54.074Z,26.95
2019-03-21T09:57:54.065Z,26.17
2019-03-21T09:58:54.052Z,26.25
2019-03-21T09:59:54.045Z,26.54
2019-03-21T10:00:54.051Z,26.65
2019-03-21T10:01:54.513Z,26.05
2019-03-21T10:02:54.008Z,25.62
2019-03-21T10:03:53.996Z,26.92
2019-03-21T10:04:53.985Z,25.94
2019-03-21T10:05:53.993Z,25.23
2019-03-21T10:06:53.966Z,25.12
2019-03-21T10:07:53.956Z,24.96
2019-03-21T10:08:53.942Z,26.68
2019-03-21T10:09:53.934Z,26.50
2019-03-21T10:10:53.944Z,27.50
2019-03-21T10:11:53.911Z,26.72
2019-03-21T10:12:55.584Z,27.72
2019-03-21T10:13:53.891Z,27.91
2019-03-21T10:14:53.879Z,26.30
2019-03-21T10:15:53.885Z,27.68
2019-03-21T10:16:53.856Z,27.76
2019-03-21T10:17:53.845Z,26.08
2019-03-21T10:18:53.834Z,25.46
2019-03-21T10:19:53.828Z,25.07
2019-03-21T10:20:53.810Z,26.24
2019-03-21T10:21:53.820Z,25.52
2019-03-21T10:22:53.794Z,25.76
2019-03-21T10:23:53.780Z,25.21
2019-03-21T10:24:53.768Z,25.20
2019-03-21T10:25:53.758Z,26.07
2019-03-21T10:26:53.767Z,25.33
2019-03-21T10:27:53.737Z,23.63
2019-03-21T10:28:53.722Z,22.25
2019-03-21T10:29:53.716Z,23.45
2019-03-21T10:30:53.702Z,24.04
2019-03-21T10:31:53.770Z,24.15
2019-03-21T10:32:53.687Z,25.35
2019-03-21T10:33:53.669Z,25.09
2019-03-21T10:34:53.659Z,26.08
2019-03-21T10:35:53.652Z,25.17
2019-03-21T10:36:53.657Z,25.04
2019-03-21T10:37:53.626Z,24.85
2019-03-21T10:38:53.616Z,24.64
2019-03-21T10:39:53.606Z,24.51
2019-03-21T10:40:53.595Z,23.23
2019-03-21T10:41:53.606Z,23.34
2019-03-21T10:42:53.576Z,24.14
2019-03-21T10:43:53.559Z,25.26
2019-03-21T10:44:53.549Z,24.98
2019-03-21T10:45:53.540Z,24.90
2019-03-21T10:46:53.549Z,25.20
2019-03-21T10:47:53.520Z,24.08
2019-03-21T10:48:53.506Z,24.37
2019-03-21T10:49:53.496Z,23.67
2019-03-21T10:50:53.485Z,24.44
2019-03-21T10:51:55.165Z,24.63
2019-03-21T10:52:53.465Z,23.84
2019-03-21T10:53:53.450Z,23.66
2019-03-21T10:54:53.439Z,25.76
2019-03-21T10:55:53.430Z,25.28
2019-03-21T10:56:53.441Z,24.86
2019-03-21T10:57:53.415Z,24.77
2019-03-21T10:58:53.397Z,24.25
2019-03-21T10:59:53.385Z,23.84
2019-03-21T11:00:53.373Z,24.06
2019-03-21T11:01:53.362Z,24.16
2019-03-21T11:02:53.370Z,25.20
2019-03-21T11:03:53.343Z,25.77
2019-03-21T11:04:53.330Z,24.66
2019-03-21T11:05:53.317Z,23.96
2019-03-21T11:06:53.315Z,23.55
2019-03-21T11:07:53.323Z,22.35
2019-03-21T11:08:53.284Z,22.66
2019-03-21T11:09:53.276Z,23.65
2019-03-21T11:10:53.264Z,23.82
2019-03-21T11:11:53.250Z,23.42
2019-03-21T11:12:53.263Z,22.02
2019-03-21T11:13:53.233Z,22.61
2019-03-21T11:14:53.221Z,22.92
2019-03-21T11:15:53.209Z,23.20
2019-03-21T11:16:53.200Z,23.31
2019-03-21T11:17:53.206Z,23.72
2019-03-21T11:18:53.176Z,23.66
2019-03-21T11:19:53.167Z,24.57
2019-03-21T11:20:53.158Z,25.45
2019-03-21T11:21:53.145Z,24.19
2019-03-21T11:22:55.682Z,24.87
2019-03-21T11:23:53.123Z,24.68
2019-03-21T11:24:53.111Z,25.28
2019-03-21T11:25:53.103Z,25.68
2019-03-21T11:26:53.090Z,25.48
2019-03-21T11:27:53.079Z,25.57
2019-03-21T11:28:53.087Z,24.97
2019-03-21T11:29:53.058Z,23.78
2019-03-21T11:30:53.046Z,24.88
2019-03-21T11:31:53.037Z,24.77
2019-03-21T11:32:53.023Z,25.07
2019-03-21T11:33:53.031Z,23.96
2019-03-21T11:34:53.004Z,24.04
2019-03-21T11:35:52.990Z,24.25
2019-03-21T11:36:52.980Z,23.85
2019-03-21T11:37:52.970Z,24.76
2019-03-21T11:38:52.978Z,25.08
2019-03-21T11:39:52.947Z,25.18
2019-03-21T11:40:52.937Z,25.29
2019-03-21T11:41:52.950Z,25.39
2019-03-21T11:42:52.928Z,24.98
2019-03-21T11:43:52.937Z,24.18
2019-03-21T11:44:52.903Z,23.86
2019-03-21T11:45:55.221Z,23.56
2019-03-21T11:46:52.875Z,25.17
2019-03-21T11:47:52.872Z,24.99
2019-03-21T11:48:52.852Z,25.48
2019-03-21T11:49:52.863Z,25.38
2019-03-21T11:50:52.837Z,25.27
2019-03-21T11:51:52.820Z,23.97
2019-03-21T11:52:52.804Z,25.54
2019-03-21T11:53:52.796Z,24.65
2019-03-21T11:54:52.809Z,25.94
2019-03-21T11:55:52.770Z,25.17
2019-03-21T11:56:52.761Z,24.98
2019-03-21T11:57:52.748Z,24.97
2019-03-21T11:58:52.737Z,25.37
2019-03-21T11:59:52.744Z,24.87
2019-03-21T12:00:52.725Z,24.80
2019-03-21T12:01:52.704Z,25.62
2019-03-21T12:02:52.694Z,25.84
2019-03-21T12:03:52.682Z,26.73
2019-03-21T12:04:52.691Z,27.52
2019-03-21T12:05:52.660Z,26.32
2019-03-21T12:06:52.649Z,26.20
2019-03-21T12:07:52.640Z,26.19
2019-03-21T12:08:52.624Z,25.20
2019-03-21T12:09:52.695Z,24.68
2019-03-21T12:10:52.607Z,24.66
2019-03-21T12:11:52.591Z,25.55
2019-03-21T12:12:52.581Z,25.18
2019-03-21T12:13:52.574Z,25.37
2019-03-21T12:14:52.584Z,24.87
2019-03-21T12:15:52.548Z,25.38
2019-03-21T12:16:52.536Z,25.18
2019-03-21T12:17:52.526Z,24.79
2019-03-21T12:18:52.518Z,26.07
2019-03-21T12:19:52.508Z,25.89
2019-03-21T12:20:52.513Z,25.89
2019-03-21T12:21:52.480Z,26.09
2019-03-21T12:22:52.473Z,25.49
2019-03-21T12:23:52.459Z,25.21
2019-03-21T12:24:52.450Z,25.61
2019-03-21T12:25:52.456Z,26.23
2019-03-21T12:26:52.426Z,26.32
2019-03-21T12:27:52.413Z,26.32
2019-03-21T12:28:52.407Z,26.24
2019-03-21T12:29:52.393Z,26.64
2019-03-21T12:30:52.402Z,26.43
2019-03-21T12:31:52.385Z,26.23
2019-03-21T12:32:52.359Z,26.03
2019-03-21T12:33:52.350Z,26.03
2019-03-21T12:34:52.337Z,25.73
2019-03-21T12:35:52.342Z,25.24
2019-03-21T12:36:52.313Z,28.09
2019-03-21T12:37:52.301Z,25.81
2019-03-21T12:38:52.291Z,26.13
2019-03-21T12:39:52.284Z,27.19
2019-03-21T12:40:52.288Z,26.10
2019-03-21T12:41:52.258Z,25.90
2019-03-21T12:42:52.248Z,25.10
2019-03-21T12:43:52.236Z,24.90
2019-03-21T12:44:52.224Z,25.08
2019-03-21T12:45:52.232Z,25.76
2019-03-21T12:46:52.206Z,24.57
2019-03-21T12:47:52.203Z,25.16
2019-03-21T12:48:52.182Z,25.46
2019-03-21T12:49:52.169Z,25.37
2019-03-21T12:50:52.184Z,24.98
2019-03-21T12:51:52.149Z,25.49